Time;durP1;ratioP1;P1;durP2;ratioP2;P2;SDS_P1;SDS_P2;PMS_P1;PMS_P2;Temp;Humidity;BMP_temperature;BMP_pressure;BME280_temperature;BME280_humidity;BME280_pressure;Samples;Min_cycle;Max_cycle;Signal;HPM_P1;HPM_P2
2022/12/15 00:40:14;;;;;;;;;76.00;54.75;;;;;0.14;100.00;100399.53;5023996;28;45238;-76
2022/12/15 00:42:39;;;;;;;;;76.25;54.75;;;;;0.09;100.00;100386.44;5023674;28;46063;-76
2022/12/15 00:45:05;;;;;;;;;76.75;56.75;;;;;0.09;100.00;100382.91;5027453;28;45219;-76
2022/12/15 00:47:31;;;;;;;;;76.00;59.00;;;;;0.08;100.00;100392.72;5027729;28;45185;-75
2022/12/15 01:20:18;;;;;;;;;67.75;49.00;;;;;-0.28;100.00;100382.38;5040710;28;45643;-75
2022/12/15 01:22:45;;;;;;;;;76.00;52.00;;;;;-0.22;100.00;100397.22;5038976;28;46412;-77
2022/12/15 01:25:11;;;;;;;;;73.00;58.00;;;;;-0.30;100.00;100405.66;5042802;28;47203;-76
2022/12/15 01:27:37;;;;;;;;;65.75;54.00;;;;;-0.34;100.00;100398.75;5027199;28;45294;-76
2022/12/15 01:30:04;;;;;;;;;66.00;54.75;;;;;-0.29;100.00;100412.69;5032219;28;45359;-76
2022/12/15 01:32:29;;;;;;;;;67.25;54.50;;;;;-0.28;100.00;100403.75;5025779;28;45413;-76
2022/12/15 01:34:55;;;;;;;;;65.25;55.25;;;;;-0.37;100.00;100404.28;5044210;28;46375;-76
2022/12/15 01:37:20;;;;;;;;;74.00;54.75;;;;;-0.41;100.00;100411.59;5024633;28;45314;-76
2022/12/15 01:42:29;;;;;;;;;78.75;58.50;;;;;-0.51;100.00;100422.91;5024841;28;45486;-76
2022/12/15 01:45:23;;;;;;;;;69.00;54.25;;;;;-0.52;100.00;100429.19;5045501;28;47684;-76
2022/12/15 01:47:54;;;;;;;;;81.00;58.25;;;;;-0.75;100.00;100401.13;5025511;28;45530;-76
2022/12/15 01:50:20;;;;;;;;;70.50;54.75;;;;;-0.65;100.00;100430.78;5040807;28;45467;-76
2022/12/15 01:52:47;;;;;;;;;71.25;55.25;;;;;-0.65;100.00;100431.66;5027043;28;45689;-76
2022/12/15 01:55:16;;;;;;;;;73.75;55.75;;;;;-0.80;100.00;100422.69;5039806;28;46067;-76
2022/12/15 01:57:41;;;;;;;;;72.50;56.00;;;;;-0.82;100.00;100435.28;5037912;28;46042;-76
2022/12/15 02:00:08;;;;;;;;;72.25;56.25;;;;;-0.82;100.00;100427.28;5023974;28;45330;-76
2022/12/15 02:02:35;;;;;;;;;74.00;54.00;;;;;-0.81;100.00;100439.66;5025913;28;45252;-77
2022/12/15 02:05:02;;;;;;;;;69.75;54.50;;;;;-0.93;100.00;100415.44;5023808;28;46627;-76
2022/12/15 02:07:28;;;;;;;;;68.50;53.75;;;;;-1.01;100.00;100418.53;5038816;28;46698;-76
2022/12/15 02:09:57;;;;;;;;;60.75;50.00;;;;;-1.00;100.00;100433.59;5025438;28;45398;-77
2022/12/15 02:12:40;;;;;;;;;79.75;61.50;;;;;-1.01;100.00;100434.53;5040388;28;45611;-76
2022/12/15 02:15:05;;;;;;;;;76.50;57.00;;;;;-0.95;100.00;100444.03;5047922;28;46698;-77
2022/12/15 02:17:35;;;;;;;;;61.00;41.25;;;;;-1.02;100.00;100422.16;5029929;28;45504;-77
2022/12/15 02:20:22;;;;;;;;;73.25;57.50;;;;;-0.96;100.00;100431.63;5036258;28;45457;-76
2022/12/15 02:23:12;;;;;;;;;73.25;58.75;;;;;-1.06;100.00;100419.75;5032847;28;45483;-77
2022/12/15 02:25:59;;;;;;;;;74.25;54.50;;;;;-1.03;100.00;100419.59;5042293;28;48113;-77
2022/12/15 02:28:42;;;;;;;;;80.25;61.50;;;;;-1.10;100.00;100426.19;5035001;28;45431;-77
2022/12/15 02:34:10;;;;;;;;;67.00;52.50;;;;;-1.12;100.00;100420.06;5030037;28;45733;-77
2022/12/15 02:36:40;;;;;;;;;80.00;60.50;;;;;-1.15;100.00;100415.75;5023690;28;45855;-76
2022/12/15 02:39:05;;;;;;;;;65.25;56.50;;;;;-1.08;100.00;100422.47;5040908;28;45444;-77
2022/12/15 02:41:37;;;;;;;;;86.75;63.00;;;;;-1.12;100.00;100426.28;5022450;28;45431;-76
2022/12/15 02:44:09;;;;;;;;;79.25;58.50;;;;;-1.12;100.00;100425.41;5031601;28;45611;-75
2022/12/15 02:46:52;;;;;;;;;74.25;54.50;;;;;-1.25;100.00;100419.88;5032884;28;47103;-75
2022/12/15 02:49:23;;;;;;;;;66.00;51.00;;;;;-1.21;100.00;100438.28;5030701;28;45666;-76
2022/12/15 02:52:26;;;;;;;;;78.25;59.25;;;;;-1.17;100.00;100447.81;5024328;28;45407;-75
2022/12/15 02:54:51;;;;;;;;;72.50;56.50;;;;;-1.16;100.00;100440.69;5035190;28;45534;-76
2022/12/15 02:57:25;;;;;;;;;71.00;55.00;;;;;-1.15;100.00;100434.41;5032036;28;45591;-76
2022/12/15 03:00:00;;;;;;;;;75.25;58.25;;;;;-1.22;100.00;100409.03;5031784;28;45467;-76
2022/12/15 03:02:29;;;;;;;;;70.75;56.75;;;;;-1.15;100.00;100425.56;5023990;28;45429;-76
2022/12/15 03:04:56;;;;;;;;;78.50;57.00;;;;;-1.21;100.00;100429.41;5033929;28;45401;-76
2022/12/15 03:07:23;;;;;;;;;77.25;58.25;;;;;-1.27;100.00;100421.75;5038502;28;45447;-76
2022/12/15 03:09:49;;;;;;;;;74.00;57.00;;;;;-1.22;100.00;100433.03;5033286;28;46034;-76
2022/12/15 03:12:14;;;;;;;;;72.00;56.25;;;;;-1.28;100.00;100420.03;5022181;28;45395;-76
2022/12/15 03:14:40;;;;;;;;;77.25;59.00;;;;;-1.26;100.00;100431.47;5036964;28;45408;-76
2022/12/15 03:17:06;;;;;;;;;78.75;62.00;;;;;-1.28;100.00;100428.03;5021503;28;47486;-76
2022/12/15 03:19:32;;;;;;;;;78.25;57.75;;;;;-1.31;100.00;100436.16;5035290;28;45282;-76
2022/12/15 03:21:57;;;;;;;;;80.50;59.00;;;;;-1.28;100.00;100446.69;5038625;28;45369;-76
2022/12/15 03:24:22;;;;;;;;;69.00;57.75;;;;;-1.39;100.00;100425.09;5035588;28;45264;-76
2022/12/15 03:26:48;;;;;;;;;74.25;56.25;;;;;-1.43;100.00;100431.50;5036658;28;45642;-76
2022/12/15 03:29:16;;;;;;;;;76.25;58.00;;;;;-1.38;100.00;100432.97;5031997;28;45268;-76
2022/12/15 03:31:41;;;;;;;;;76.25;57.75;;;;;-1.32;100.00;100439.81;5029445;28;45350;-76
2022/12/15 03:34:07;;;;;;;;;74.25;56.75;;;;;-1.31;100.00;100442.38;5028656;28;45406;-76
2022/12/15 03:36:32;;;;;;;;;78.25;56.00;;;;;-1.38;100.00;100424.13;5026174;28;45481;-76
2022/12/15 03:38:58;;;;;;;;;80.25;59.25;;;;;-1.34;100.00;100434.56;5028801;28;45469;-76
2022/12/15 03:41:23;;;;;;;;;74.75;55.50;;;;;-1.37;100.00;100429.38;5036137;28;45376;-75
2022/12/15 03:43:48;;;;;;;;;82.25;59.00;;;;;-1.46;100.00;100411.19;5024878;28;45727;-76
2022/12/15 03:46:14;;;;;;;;;73.50;58.00;;;;;-1.42;100.00;100414.56;5020820;28;48080;-75
2022/12/15 03:48:39;;;;;;;;;75.25;60.25;;;;;-1.47;100.00;100411.31;5029525;28;45385;-75
2022/12/15 03:51:05;;;;;;;;;76.25;59.75;;;;;-1.41;100.00;100427.81;5032115;28;45320;-76
2022/12/15 03:53:30;;;;;;;;;80.50;58.25;;;;;-1.41;100.00;100416.31;5035663;28;45385;-75
2022/12/15 03:55:55;;;;;;;;;74.50;56.75;;;;;-1.66;100.00;100374.97;5022487;28;45606;-76
2022/12/15 03:58:21;;;;;;;;;78.75;59.50;;;;;-1.44;100.00;100408.47;5034228;28;45330;-75
2022/12/15 04:00:46;;;;;;;;;75.00;60.00;;;;;-1.40;100.00;100436.69;5022129;28;45516;-76
2022/12/15 04:03:12;;;;;;;;;81.50;59.75;;;;;-1.45;100.00;100436.03;5028242;28;45392;-75
2022/12/15 04:05:38;;;;;;;;;75.00;57.25;;;;;-1.33;100.00;100444.28;5030384;28;47520;-76
2022/12/15 04:08:04;;;;;;;;;77.25;62.75;;;;;-1.32;100.00;100432.69;5027311;28;45383;-76
2022/12/15 04:10:31;;;;;;;;;77.25;59.50;;;;;-1.34;100.00;100420.38;5030630;28;45255;-76
2022/12/15 04:13:02;;;;;;;;;76.75;58.25;;;;;-1.29;100.00;100437.81;5024996;28;45300;-75
2022/12/15 04:15:28;;;;;;;;;79.00;61.00;;;;;-1.29;100.00;100434.28;5040407;28;45318;-75
2022/12/15 04:17:53;;;;;;;;;81.50;61.25;;;;;-1.16;100.00;100440.69;5025323;28;45589;-76
2022/12/15 04:20:19;;;;;;;;;67.50;57.25;;;;;-1.13;100.00;100439.69;5035678;28;45315;-76
2022/12/15 04:22:47;;;;;;;;;77.50;57.50;;;;;-1.22;100.00;100422.38;5032931;28;46034;-76
2022/12/15 05:33:56;;;;;;;;;80.50;60.25;;;;;-0.66;100.00;100407.75;5029514;28;45527;-75
2022/12/15 05:36:22;;;;;;;;;76.75;57.75;;;;;-0.63;100.00;100415.56;5025081;28;45354;-76
2022/12/15 05:38:51;;;;;;;;;86.00;63.25;;;;;-0.67;100.00;100416.69;5038652;28;45457;-74
2022/12/15 05:41:19;;;;;;;;;81.00;60.75;;;;;-0.60;100.00;100426.06;5043442;28;45671;-77
2022/12/15 05:43:44;;;;;;;;;72.00;55.00;;;;;-0.59;100.00;100414.47;5026594;28;45322;-74
2022/12/15 05:46:10;;;;;;;;;82.50;61.75;;;;;-0.56;100.00;100414.28;5029062;28;45358;-76
2022/12/15 05:48:36;;;;;;;;;81.50;62.00;;;;;-0.57;100.00;100415.22;5046517;28;45656;-74
2022/12/15 05:51:07;;;;;;;;;72.50;55.75;;;;;-0.69;100.00;100406.09;5034458;28;46829;-75
2022/12/15 05:53:33;;;;;;;;;76.75;60.00;;;;;-0.64;100.00;100420.03;5024962;28;47342;-76
2022/12/15 05:56:04;;;;;;;;;84.00;62.25;;;;;-0.56;100.00;100432.94;5027930;28;45536;-74
2022/12/15 05:58:29;;;;;;;;;74.75;58.75;;;;;-0.67;100.00;100424.69;5032461;28;45434;-77
2022/12/15 06:01:05;;;;;;;;;71.50;55.25;;;;;-0.69;100.00;100429.25;5028470;28;46239;-75
2022/12/15 06:03:30;;;;;;;;;77.75;58.50;;;;;-0.74;100.00;100426.00;5027674;28;45434;-74
2022/12/15 06:05:57;;;;;;;;;94.25;67.50;;;;;-0.81;100.00;100434.34;5038536;28;45357;-75
2022/12/15 06:08:22;;;;;;;;;87.50;65.00;;;;;-0.95;100.00;100422.69;5028715;28;45440;-75
2022/12/15 06:10:53;;;;;;;;;79.50;59.75;;;;;-1.09;100.00;100410.09;5025346;28;45306;-75
2022/12/15 06:13:19;;;;;;;;;76.75;60.25;;;;;-1.03;100.00;100419.59;5037750;28;45527;-76
2022/12/15 06:16:13;;;;;;;;;74.00;52.25;;;;;-0.94;100.00;100417.25;5041472;28;45437;-76
2022/12/15 06:18:41;;;;;;;;;74.00;56.25;;;;;-0.90;100.00;100429.50;5036766;28;45915;-75
2022/12/15 06:21:14;;;;;;;;;85.00;58.00;;;;;-0.88;100.00;100448.09;5037907;28;48069;-75
2022/12/15 06:23:41;;;;;;;;;67.25;54.50;;;;;-0.93;100.00;100444.78;5030493;28;45465;-76
2022/12/15 06:26:10;;;;;;;;;59.25;52.25;;;;;-1.05;100.00;100443.66;5023913;28;45323;-77
2022/12/15 06:28:35;;;;;;;;;81.00;63.75;;;;;-1.13;100.00;100439.69;5038800;28;45279;-76
2022/12/15 06:31:03;;;;;;;;;76.75;59.75;;;;;-1.04;100.00;100450.72;5021176;28;48270;-78
2022/12/15 06:33:29;;;;;;;;;78.25;55.00;;;;;-1.19;100.00;100433.75;5024639;28;45506;-76
2022/12/15 06:35:55;;;;;;;;;76.75;58.00;;;;;-1.11;100.00;100457.31;5025569;28;45404;-76
2022/12/15 06:38:21;;;;;;;;;76.75;61.50;;;;;-1.15;100.00;100449.56;5036474;28;45586;-77
2022/12/15 06:40:57;;;;;;;;;78.50;58.75;;;;;-1.15;100.00;100447.75;5023704;28;45411;-76
2022/12/15 06:43:22;;;;;;;;;71.50;57.75;;;;;-1.28;100.00;100436.88;5023206;28;45328;-78
2022/12/15 06:45:49;;;;;;;;;56.25;43.25;;;;;-1.13;100.00;100466.34;5022408;28;45294;-76
2022/12/15 06:48:14;;;;;;;;;63.00;49.50;;;;;-1.13;100.00;100469.88;5025883;28;45438;-77
2022/12/15 06:50:40;;;;;;;;;83.25;61.25;;;;;-1.15;100.00;100474.41;5029337;28;46786;-77
2022/12/15 06:53:05;;;;;;;;;75.25;57.75;;;;;-1.16;100.00;100472.69;5027430;28;45403;-76
2022/12/15 06:55:32;;;;;;;;;78.00;64.25;;;;;-1.23;100.00;100476.59;5039022;28;45286;-77
2022/12/15 06:57:57;;;;;;;;;79.25;61.75;;;;;-1.20;100.00;100481.78;5029429;28;45425;-76
2022/12/15 07:00:22;;;;;;;;;85.25;61.50;;;;;-1.25;100.00;100474.06;5036085;28;47235;-76
2022/12/15 07:02:48;;;;;;;;;76.00;59.25;;;;;-1.17;100.00;100480.78;5026508;28;45467;-77
2022/12/15 07:05:13;;;;;;;;;84.50;62.00;;;;;-1.18;100.00;100474.59;5030738;28;45432;-76
2022/12/15 07:07:38;;;;;;;;;80.25;63.50;;;;;-1.26;100.00;100472.31;5038336;28;45313;-77
2022/12/15 07:10:04;;;;;;;;;75.00;55.75;;;;;-1.46;100.00;100443.16;5025596;28;46232;-77
2022/12/15 07:12:30;;;;;;;;;79.25;60.25;;;;;-1.33;100.00;100475.38;5023672;28;45611;-77
2022/12/15 07:14:56;;;;;;;;;80.75;62.50;;;;;-1.47;100.00;100473.44;5022854;28;45390;-77
2022/12/15 07:17:23;;;;;;;;;79.00;60.75;;;;;-1.51;100.00;100473.66;5023230;28;45280;-77
2022/12/15 07:19:48;;;;;;;;;77.75;60.00;;;;;-1.55;100.00;100470.31;5040785;28;47271;-76
2022/12/15 07:22:14;;;;;;;;;82.00;63.25;;;;;-1.53;100.00;100475.56;5030246;28;45247;-75
2022/12/15 07:24:39;;;;;;;;;78.00;56.50;;;;;-1.55;100.00;100485.44;5032746;28;45281;-76
2022/12/15 07:27:04;;;;;;;;;86.00;62.00;;;;;-1.57;100.00;100494.34;5022239;28;45236;-77
2022/12/15 07:29:30;;;;;;;;;91.75;62.75;;;;;-1.67;100.00;100492.22;5051488;28;45286;-78
2022/12/15 07:31:55;;;;;;;;;83.25;62.00;;;;;-1.65;100.00;100501.00;5021501;28;45392;-77
2022/12/15 07:34:21;;;;;;;;;79.25;61.75;;;;;-1.60;100.00;100506.94;5031039;28;45411;-76
2022/12/15 07:36:46;;;;;;;;;84.75;63.00;;;;;-1.64;100.00;100495.59;5021950;28;45188;-77
2022/12/15 07:39:11;;;;;;;;;90.00;68.75;;;;;-1.54;100.00;100493.34;5027446;28;45348;-78
2022/12/15 07:41:39;;;;;;;;;44.00;32.25;;;;;-1.55;100.00;100483.63;5038811;28;46674;-78
2022/12/15 07:44:05;;;;;;;;;74.25;60.25;;;;;-1.52;100.00;100475.47;5037358;28;45483;-77
2022/12/15 07:46:30;;;;;;;;;86.25;66.75;;;;;-1.37;100.00;100489.78;5048945;28;45641;-77
2022/12/15 07:48:55;;;;;;;;;84.00;64.50;;;;;-1.44;100.00;100485.72;5028102;28;45379;-76
2022/12/15 07:51:21;;;;;;;;;85.00;63.25;;;;;-1.51;100.00;100486.97;5023613;28;45319;-77
2022/12/15 07:53:50;;;;;;;;;76.25;60.50;;;;;-1.48;100.00;100498.34;5029420;28;45362;-76
2022/12/15 07:56:17;;;;;;;;;75.25;60.00;;;;;-1.32;100.00;100501.09;5037153;28;45184;-77
2022/12/15 07:58:43;;;;;;;;;85.00;62.75;;;;;-1.19;100.00;100502.19;5033373;28;45774;-78
2022/12/15 08:01:12;;;;;;;;;69.75;58.50;;;;;-1.17;100.00;100493.13;5025644;28;45430;-78
2022/12/15 08:03:37;;;;;;;;;74.75;55.75;;;;;-1.03;100.00;100511.09;5036184;28;45397;-78
2022/12/15 08:06:09;;;;;;;;;77.75;61.50;;;;;-0.94;100.00;100529.25;5026210;28;45456;-78
2022/12/15 08:08:35;;;;;;;;;82.25;61.50;;;;;-0.96;100.00;100517.84;5029957;28;46354;-77
2022/12/15 08:11:09;;;;;;;;;84.00;62.50;;;;;-0.84;100.00;100533.16;5029791;28;45270;-77
2022/12/15 08:13:36;;;;;;;;;74.50;60.25;;;;;-0.80;100.00;100533.84;5027270;28;45316;-78
2022/12/15 08:16:01;;;;;;;;;82.25;60.50;;;;;-0.74;100.00;100557.56;5040060;28;45479;-76
2022/12/15 08:18:27;;;;;;;;;79.25;57.50;;;;;-0.68;100.00;100553.69;5028833;28;45267;-77
2022/12/15 08:20:52;;;;;;;;;76.75;58.25;;;;;-0.80;100.00;100532.03;5031978;28;46397;-77
2022/12/15 08:23:18;;;;;;;;;65.75;53.75;;;;;-0.74;100.00;100554.88;5027443;28;45501;-77
2022/12/15 08:25:43;;;;;;;;;80.50;63.00;;;;;-0.80;100.00;100563.19;5040744;28;45557;-77
2022/12/15 08:28:08;;;;;;;;;79.75;61.75;;;;;-0.74;100.00;100559.34;5029844;28;45484;-77
2022/12/15 08:30:35;;;;;;;;;78.50;59.75;;;;;-0.61;100.00;100568.44;5027810;28;45349;-78
2022/12/15 08:33:01;;;;;;;;;80.75;60.00;;;;;-0.57;100.00;100559.28;5026840;28;45259;-76
2022/12/15 08:35:27;;;;;;;;;68.25;57.00;;;;;-0.53;100.00;100556.41;5029284;28;45483;-76
2022/12/15 08:37:52;;;;;;;;;80.50;60.75;;;;;-0.43;100.00;100575.41;5028339;28;46333;-78
2022/12/15 08:40:17;;;;;;;;;79.50;61.25;;;;;-0.37;100.00;100575.13;5025668;28;45220;-76
2022/12/15 08:42:43;;;;;;;;;77.25;61.75;;;;;-0.48;100.00;100553.47;5028689;28;45480;-77
2022/12/15 08:45:10;;;;;;;;;85.50;63.75;;;;;-0.42;100.00;100561.13;5037894;28;45339;-77
2022/12/15 08:47:36;;;;;;;;;89.50;62.75;;;;;-0.35;100.00;100553.66;5038236;28;47276;-78
2022/12/15 08:50:02;;;;;;;;;88.50;63.50;;;;;-0.36;100.00;100554.59;5029960;28;45292;-76
2022/12/15 08:52:27;;;;;;;;;84.25;62.50;;;;;-0.31;100.00;100547.22;5039029;28;45331;-77
2022/12/15 08:54:53;;;;;;;;;79.00;61.25;;;;;-0.23;100.00;100561.00;5032654;28;45505;-76
2022/12/15 08:57:18;;;;;;;;;84.00;62.25;;;;;-0.31;100.00;100547.22;5028865;28;45563;-76
2022/12/15 08:59:43;;;;;;;;;78.50;61.75;;;;;-0.31;100.00;100558.75;5035332;28;45382;-76
2022/12/15 09:02:11;;;;;;;;;89.50;61.00;;;;;-0.17;100.00;100561.53;5032864;28;45351;-76
2022/12/15 09:04:36;;;;;;;;;77.25;60.25;;;;;-0.10;100.00;100557.56;5037439;28;45680;-78
2022/12/15 09:07:02;;;;;;;;;81.25;63.00;;;;;0.00;100.00;100556.09;5024607;28;45853;-76
2022/12/15 09:09:27;;;;;;;;;83.25;62.50;;;;;0.02;100.00;100556.00;5036937;28;46125;-77
2022/12/15 09:11:53;;;;;;;;;81.50;62.50;;;;;-0.23;100.00;100567.22;5034368;28;45428;-77
2022/12/15 09:14:18;;;;;;;;;88.50;67.00;;;;;-0.15;100.00;100573.00;5038978;28;45521;-78
2022/12/15 09:16:43;;;;;;;;;74.75;58.00;;;;;-0.30;100.00;100560.50;5040379;28;48328;-77
2022/12/15 09:19:09;;;;;;;;;76.25;60.25;;;;;-0.10;100.00;100573.59;5051858;28;45522;-77
2022/12/15 09:21:35;;;;;;;;;82.50;63.75;;;;;-0.02;100.00;100555.34;5036277;28;45339;-77
2022/12/15 09:24:01;;;;;;;;;83.50;62.25;;;;;0.00;100.00;100563.25;5038960;28;45446;-78
2022/12/15 09:26:30;;;;;;;;;99.75;75.00;;;;;-0.03;100.00;100561.63;5039356;28;46538;-77
2022/12/15 09:28:56;;;;;;;;;72.75;57.00;;;;;0.00;100.00;100563.25;5032102;28;45714;-77
2022/12/15 09:31:28;;;;;;;;;77.75;57.75;;;;;-0.08;100.00;100566.38;5026483;28;45485;-77
2022/12/15 09:33:55;;;;;;;;;87.25;63.25;;;;;0.05;100.00;100571.88;5033039;28;45565;-76
2022/12/15 09:36:21;;;;;;;;;82.25;61.50;;;;;0.05;100.00;100571.00;5030713;28;46557;-77
2022/12/15 09:38:48;;;;;;;;;84.00;67.00;;;;;-0.05;100.00;100566.16;5038396;28;45492;-77
2022/12/15 09:41:16;;;;;;;;;80.75;62.50;;;;;0.07;100.00;100569.97;5027725;28;45437;-77
2022/12/15 09:43:55;;;;;;;;;82.00;63.50;;;;;0.10;100.00;100574.28;5031384;28;45443;-77
2022/12/15 09:46:45;;;;;;;;;79.25;62.75;;;;;0.14;100.00;100575.84;5024951;28;47839;-77
2022/12/15 09:49:49;;;;;;;;;90.50;68.50;;;;;0.15;100.00;100577.53;5029596;28;45444;-77
2022/12/15 09:52:27;;;;;;;;;82.25;61.25;;;;;0.24;100.00;100577.03;5005008;28;45289;-75
2022/12/15 09:54:54;;;;;;;;;76.00;60.00;;;;;0.47;100.00;100583.72;5042091;28;44862;-77
2022/12/15 09:57:32;;;;;;;;;81.75;63.25;;;;;0.58;100.00;100571.47;5031818;28;48093;-78
2022/12/15 10:00:14;;;;;;;;;62.50;40.25;;;;;0.67;100.00;100573.59;5030545;28;45345;-75
2022/12/15 10:03:01;;;;;;;;;89.25;63.25;;;;;0.50;100.00;100583.56;5028663;28;45299;-77
2022/12/15 10:05:46;;;;;;;;;88.25;65.50;;;;;0.53;100.00;100586.91;5042490;28;45649;-77
2022/12/15 10:08:13;;;;;;;;;80.75;61.75;;;;;0.57;100.00;100585.78;5029499;28;45461;-75
2022/12/15 10:10:58;;;;;;;;;85.25;66.75;;;;;0.47;100.00;100581.06;5032243;28;45397;-76
2022/12/15 10:14:06;;;;;;;;;80.25;60.25;;;;;0.64;100.00;100584.47;5025823;28;45415;-76
2022/12/15 10:16:52;;;;;;;;;76.50;58.00;;;;;0.92;100.00;100573.00;5038293;28;45485;-76
2022/12/15 10:19:23;;;;;;;;;85.75;62.75;;;;;1.07;100.00;100568.56;5033879;28;45495;-76
2022/12/15 10:21:49;;;;;;;;;79.75;62.25;;;;;0.91;100.00;100567.75;5041733;28;45449;-76
2022/12/15 10:24:18;;;;;;;;;81.75;63.50;;;;;0.86;100.00;100561.81;5029159;28;45473;-76
2022/12/15 10:26:51;;;;;;;;;85.75;65.50;;;;;0.85;100.00;100562.75;5039777;28;45549;-75
2022/12/15 10:29:26;;;;;;;;;80.75;61.50;;;;;0.82;100.00;100570.97;5029889;28;47204;-75
2022/12/15 10:32:12;;;;;;;;;88.25;68.00;;;;;0.74;100.00;100558.91;5022835;28;45268;-76
2022/12/15 10:34:39;;;;;;;;;78.25;61.25;;;;;0.91;100.00;100557.91;5025080;28;45590;-76
2022/12/15 10:37:05;;;;;;;;;73.25;58.25;;;;;0.94;100.00;100546.16;5023761;28;45293;-75
2022/12/15 10:39:39;;;;;;;;;80.75;61.00;;;;;1.29;100.00;100557.41;5037622;28;46893;-75
2022/12/15 10:42:15;;;;;;;;;29.00;23.50;;;;;1.43;100.00;100555.59;5026147;28;45286;-76
2022/12/15 10:44:44;;;;;;;;;74.75;58.25;;;;;1.60;100.00;100546.50;5028427;28;45392;-76
2022/12/15 10:47:16;;;;;;;;;78.00;61.50;;;;;1.71;100.00;100538.66;5035571;28;45649;-75
2022/12/15 10:49:41;;;;;;;;;74.50;57.00;;;;;1.79;100.00;100525.63;5028087;28;45806;-76
2022/12/15 10:52:23;;;;;;;;;79.00;61.75;;;;;1.85;100.00;100519.88;5035367;28;45637;-75
2022/12/15 10:54:51;;;;;;;;;87.00;64.50;;;;;1.71;100.00;100530.59;5027726;28;45500;-75
2022/12/15 10:57:26;;;;;;;;;86.25;66.75;;;;;1.73;100.00;100531.38;5030251;28;45347;-76
2022/12/15 10:59:51;;;;;;;;;78.25;59.50;;;;;1.72;100.00;100513.59;5028951;28;45489;-75
2022/12/15 11:02:20;;;;;;;;;73.50;55.25;;;;;1.96;100.00;100521.88;5022828;28;45164;-76
2022/12/15 11:05:02;;;;;;;;;83.25;61.75;;;;;2.01;100.00;100524.25;5032318;28;45333;-76
2022/12/15 11:07:42;;;;;;;;;85.25;61.25;;;;;2.14;100.00;100509.06;5030219;28;45518;-76
2022/12/15 11:13:16;;;;;;;;;69.50;57.00;;;;;2.23;100.00;100500.44;5034068;28;45424;-74
2022/12/15 11:15:51;;;;;;;;;66.50;49.75;;;;;2.23;100.00;100490.56;5040941;28;45305;-75
2022/12/15 11:18:42;;;;;;;;;78.50;58.25;;;;;2.34;100.00;100496.06;5029198;28;45347;-76
2022/12/15 11:21:11;;;;;;;;;87.75;63.75;;;;;2.18;100.00;100483.81;5035615;28;45537;-77
2022/12/15 11:24:12;;;;;;;;;65.00;55.75;;;;;2.18;100.00;100486.50;5031227;28;45235;-76
2022/12/15 11:27:19;;;;;;;;;76.75;58.00;;;;;1.94;100.00;100483.59;5036792;28;45343;-76
2022/12/15 11:29:56;;;;;;;;;74.25;58.00;;;;;2.01;100.00;100474.19;5043881;28;45412;-75
2022/12/15 11:32:28;;;;;;;;;82.75;63.75;;;;;1.97;100.00;100459.28;5044066;28;47577;-75
2022/12/15 11:34:54;;;;;;;;;75.25;57.50;;;;;1.84;100.00;100458.34;5037672;28;45433;-75
2022/12/15 11:37:37;;;;;;;;;77.00;60.50;;;;;1.77;100.00;100446.31;5025964;28;45427;-75
2022/12/15 11:40:02;;;;;;;;;73.50;54.00;;;;;1.70;100.00;100453.03;5026646;28;45468;-75
2022/12/15 11:42:48;;;;;;;;;75.00;56.50;;;;;1.55;100.00;100434.34;5035113;28;47009;-75
2022/12/15 11:45:23;;;;;;;;;73.00;56.50;;;;;1.66;100.00;100433.66;5027457;28;45160;-74
2022/12/15 11:47:55;;;;;;;;;85.75;63.75;;;;;1.67;100.00;100423.81;5025827;28;45513;-74
2022/12/15 11:50:31;;;;;;;;;79.25;61.50;;;;;1.63;100.00;100417.78;5042429;28;45485;-74
2022/12/15 11:53:08;;;;;;;;;72.75;59.50;;;;;1.60;100.00;100422.47;5053242;28;46850;-74
2022/12/15 11:55:47;;;;;;;;;71.25;56.00;;;;;1.56;100.00;100433.38;5027435;28;45391;-74
2022/12/15 11:58:40;;;;;;;;;72.25;57.25;;;;;1.70;100.00;100413.72;5030481;28;45329;-76
2022/12/15 12:01:24;;;;;;;;;64.75;53.25;;;;;1.57;100.00;100423.53;5027154;28;45198;-75
2022/12/15 12:04:08;;;;;;;;;79.50;61.50;;;;;1.69;100.00;100417.38;5025410;28;47243;-76
2022/12/15 12:06:45;;;;;;;;;78.50;60.00;;;;;1.65;100.00;100418.53;5030678;28;45282;-74
2022/12/15 12:09:16;;;;;;;;;79.25;58.75;;;;;1.75;100.00;100400.06;5030581;28;45607;-75
2022/12/15 12:11:52;;;;;;;;;73.25;57.75;;;;;1.77;100.00;100385.59;5027194;28;45265;-75
2022/12/15 12:14:37;;;;;;;;;78.50;58.00;;;;;1.82;100.00;100401.38;5031923;28;45453;-76
2022/12/15 12:17:26;;;;;;;;;65.75;53.00;;;;;1.71;100.00;100393.16;5031278;28;45430;-76
2022/12/15 12:19:57;;;;;;;;;77.75;59.25;;;;;1.76;100.00;100393.72;5036978;28;45504;-75
2022/12/15 12:22:41;;;;;;;;;75.50;55.00;;;;;1.53;100.00;100380.00;5037409;28;45394;-75
2022/12/15 12:25:24;;;;;;;;;68.50;46.25;;;;;1.52;100.00;100375.66;5033990;28;45755;-74
2022/12/15 12:27:55;;;;;;;;;70.00;53.25;;;;;1.47;100.00;100384.91;5036548;28;45549;-75
2022/12/15 12:30:25;;;;;;;;;77.75;58.50;;;;;1.44;100.00;100374.44;5034455;28;45305;-73
2022/12/15 12:33:19;;;;;;;;;62.50;50.00;;;;;1.54;100.00;100365.69;5024447;28;45593;-73
2022/12/15 12:35:51;;;;;;;;;77.25;58.25;;;;;1.63;100.00;100368.72;5031565;28;46982;-74
2022/12/15 12:38:23;;;;;;;;;74.75;56.75;;;;;1.65;100.00;100366.81;5029081;28;45299;-75
2022/12/15 12:41:13;;;;;;;;;58.00;46.75;;;;;1.55;100.00;100367.41;5036217;28;45263;-74
2022/12/15 12:43:44;;;;;;;;;74.50;52.50;;;;;1.57;100.00;100375.34;5030271;28;45366;-75
2022/12/15 12:46:20;;;;;;;;;75.25;56.00;;;;;1.55;100.00;100367.41;5030293;28;46601;-74
2022/12/15 12:48:51;;;;;;;;;70.00;54.25;;;;;1.56;100.00;100363.75;5030395;28;46150;-74
2022/12/15 12:51:35;;;;;;;;;47.25;44.25;;;;;1.51;100.00;100344.47;5034768;28;45291;-75
2022/12/15 12:54:20;;;;;;;;;64.00;51.75;;;;;1.61;100.00;100354.59;5035183;28;45337;-74
2022/12/15 12:56:46;;;;;;;;;70.00;53.00;;;;;1.47;100.00;100348.28;5036332;28;46888;-74
2022/12/15 12:59:30;;;;;;;;;67.50;48.00;;;;;1.51;100.00;100346.28;5036932;28;45512;-74
2022/12/15 13:01:56;;;;;;;;;70.00;54.75;;;;;1.47;100.00;100348.28;5025439;28;45466;-73
2022/12/15 13:04:27;;;;;;;;;72.25;52.50;;;;;1.47;100.00;100356.31;5040394;28;45449;-74
2022/12/15 13:07:23;;;;;;;;;64.00;48.00;;;;;1.48;100.00;100352.69;5038284;28;47097;-76
2022/12/15 13:10:12;;;;;;;;;64.00;51.75;;;;;1.64;100.00;100351.69;5031642;28;45465;-74
2022/12/15 13:12:43;;;;;;;;;66.50;49.75;;;;;1.62;100.00;100354.47;5032248;28;45405;-73
2022/12/15 13:15:41;;;;;;;;;62.50;49.00;;;;;1.65;100.00;100356.09;5049054;28;45353;-73
2022/12/15 13:18:18;;;;;;;;;72.75;56.00;;;;;1.49;100.00;100349.06;5030220;28;48356;-74
2022/12/15 13:20:46;;;;;;;;;63.25;49.75;;;;;1.47;100.00;100352.78;5036777;28;45199;-75
2022/12/15 13:23:18;;;;;;;;;68.75;52.25;;;;;1.48;100.00;100349.16;5040979;28;45449;-74
2022/12/15 13:25:53;;;;;;;;;67.75;48.50;;;;;1.58;100.00;100352.97;5053345;28;45553;-75
2022/12/15 13:28:39;;;;;;;;;55.75;47.75;;;;;1.63;100.00;100363.34;5026042;28;46357;-75
2022/12/15 13:31:13;;;;;;;;;67.50;50.75;;;;;1.65;100.00;100364.13;5024084;28;45376;-75
2022/12/15 13:33:47;;;;;;;;;62.00;48.00;;;;;1.64;100.00;100359.72;5028219;28;45252;-74
2022/12/15 13:36:36;;;;;;;;;61.75;47.50;;;;;1.63;100.00;100361.53;5024710;28;45690;-74
2022/12/15 13:39:11;;;;;;;;;64.50;49.50;;;;;1.69;100.00;100369.16;5027552;28;46163;-74
2022/12/15 13:41:43;;;;;;;;;70.50;50.75;;;;;1.75;100.00;100358.06;5024112;28;45177;-75
2022/12/15 13:44:31;;;;;;;;;62.75;49.75;;;;;1.75;100.00;100352.72;5028367;28;45234;-74
2022/12/15 13:47:09;;;;;;;;;62.25;49.00;;;;;1.68;100.00;100347.88;5025392;28;45354;-74
2022/12/15 13:49:42;;;;;;;;;65.50;48.50;;;;;1.73;100.00;100340.38;5034099;28;47020;-75